createdAt,value
2019-01-04T00:03:48.699Z,82545.67
2019-01-04T00:08:52.778Z,82540.33
2019-01-04T00:13:57.107Z,82533.27
2019-01-04T00:19:01.208Z,82523.67
2019-01-04T00:24:05.238Z,82509.67
2019-01-04T00:29:09.865Z,82504.90
2019-01-04T00:34:14.176Z,82488.50
2019-01-04T00:39:18.254Z,82477.45
2019-01-04T00:44:25.609Z,82461.67
2019-01-04T00:49:29.978Z,82459.52
2019-01-04T00:54:34.667Z,82451.98
2019-01-04T01:00:07.832Z,82446.45
2019-01-04T01:05:49.196Z,82435.34
2019-01-04T01:11:23.651Z,82432.95
2019-01-04T01:16:58.298Z,82431.96
2019-01-04T01:22:34.982Z,82430.14
2019-01-04T01:28:16.806Z,82430.77
2019-01-04T01:33:34.836Z,82443.66
2019-01-04T01:38:54.281Z,82443.13
2019-01-04T01:44:30.093Z,82447.41
2019-01-04T01:50:15.417Z,82453.55
2019-01-04T01:55:19.776Z,82462.93
2019-01-04T02:00:24.482Z,82457.59
2019-01-04T02:05:28.849Z,82461.02
2019-01-04T02:10:33.209Z,82458.09
2019-01-04T02:15:37.793Z,82453.16
2019-01-04T02:20:42.171Z,82447.77
2019-01-04T02:25:46.524Z,82445.45
2019-01-04T02:30:50.934Z,82437.39
2019-01-04T02:35:55.005Z,82429.94
2019-01-04T02:40:59.687Z,82418.20
2019-01-04T02:46:04.047Z,82413.20
2019-01-04T02:51:08.415Z,82418.53
2019-01-04T02:56:12.484Z,82410.77
2019-01-04T03:01:16.519Z,82420.42
2019-01-04T03:06:21.162Z,82438.48
2019-01-04T03:11:25.559Z,82453.95
2019-01-04T03:16:30.242Z,82473.97
2019-01-04T03:21:34.889Z,82482.27
2019-01-04T03:26:39.285Z,82498.53
2019-01-04T03:31:43.867Z,82508.37
2019-01-04T03:36:48.235Z,82521.55
2019-01-04T03:41:52.841Z,82531.53
2019-01-04T03:46:57.749Z,82542.45
2019-01-04T03:52:01.822Z,82546.23
2019-01-04T03:57:06.473Z,82552.97
2019-01-04T04:02:10.826Z,82557.72
2019-01-04T04:07:15.180Z,82561.79
2019-01-04T04:12:19.538Z,82565.70
2019-01-04T04:17:23.577Z,82576.00
2019-01-04T04:22:28.017Z,82586.16
2019-01-04T04:27:32.050Z,82590.40
2019-01-04T04:32:36.730Z,82591.00
2019-01-04T04:37:41.375Z,82588.44
2019-01-04T04:42:45.974Z,82587.84
2019-01-04T04:47:50.037Z,82581.84
2019-01-04T04:52:54.363Z,82575.44
2019-01-04T04:57:59.018Z,82569.16
2019-01-04T05:03:03.101Z,82559.23
2019-01-04T05:08:07.409Z,82549.35
2019-01-04T05:13:11.496Z,82539.70
2019-01-04T05:18:16.163Z,82533.59
2019-01-04T05:23:20.539Z,82536.45
2019-01-04T05:28:24.616Z,82538.17
2019-01-04T05:33:28.949Z,82541.81
2019-01-04T05:38:33.367Z,82544.77
2019-01-04T05:43:37.689Z,82545.14
2019-01-04T05:48:42.051Z,82545.41
2019-01-04T05:53:46.724Z,82547.49
2019-01-04T05:58:50.825Z,82554.92
2019-01-04T06:03:55.509Z,82554.39
2019-01-04T06:08:59.928Z,82561.63
2019-01-04T06:14:04.290Z,82565.53
2019-01-04T06:19:08.356Z,82570.45
2019-01-04T06:24:12.695Z,82576.89
2019-01-04T06:29:16.732Z,82577.76
2019-01-04T06:34:21.061Z,82577.59
2019-01-04T06:39:25.151Z,82586.02
2019-01-04T06:44:29.165Z,82590.66
2019-01-04T06:49:33.491Z,82598.06
2019-01-04T06:55:17.883Z,82603.25
2019-01-04T07:00:22.532Z,82609.53
2019-01-04T07:05:26.898Z,82614.00
2019-01-04T07:10:30.974Z,82619.47
2019-01-04T07:15:35.382Z,82621.64
2019-01-04T07:20:39.585Z,82623.63
2019-01-04T07:25:43.622Z,82627.02
2019-01-04T07:30:48.237Z,82631.55
2019-01-04T07:35:52.590Z,82638.94
2019-01-04T07:40:57.043Z,82644.48
2019-01-04T07:46:01.119Z,82649.76
2019-01-04T07:51:05.151Z,82645.04
2019-01-04T07:56:09.828Z,82637.05
2019-01-04T08:01:13.888Z,82623.30
2019-01-04T08:06:18.218Z,82609.49
2019-01-04T08:11:22.583Z,82607.91
2019-01-04T08:16:28.101Z,82618.22
2019-01-04T08:21:32.168Z,82617.19
2019-01-04T08:26:36.491Z,82616.13
2019-01-04T08:31:40.858Z,82613.27
2019-01-04T08:36:44.924Z,82606.03
2019-01-04T08:41:49.240Z,82598.03
2019-01-04T08:46:53.631Z,82607.33
2019-01-04T08:51:57.992Z,82623.36
2019-01-04T08:57:02.364Z,82638.73
2019-01-04T09:02:07.007Z,82668.59
2019-01-04T09:07:11.376Z,82689.58
2019-01-04T09:12:15.745Z,82683.75
2019-01-04T09:17:19.842Z,82690.11
2019-01-04T09:22:24.455Z,82695.81
2019-01-04T09:27:28.809Z,82710.16
2019-01-04T09:32:33.170Z,82721.02
2019-01-04T09:37:37.883Z,82715.82
2019-01-04T09:42:42.334Z,82721.49
2019-01-04T09:47:46.949Z,82723.98
2019-01-04T09:52:51.040Z,82713.99
2019-01-04T09:57:55.825Z,82712.73
2019-01-04T10:03:00.159Z,82712.37
2019-01-04T10:08:04.514Z,82713.73
2019-01-04T10:13:08.876Z,82706.97
2019-01-04T10:18:13.248Z,82716.75
2019-01-04T10:23:17.601Z,82719.66
2019-01-04T10:28:21.942Z,82730.39
2019-01-04T10:33:26.632Z,82728.83
2019-01-04T10:38:30.702Z,82722.39
2019-01-04T10:43:35.267Z,82726.91
2019-01-04T10:48:39.635Z,82732.42
2019-01-04T10:53:43.735Z,82898.47
2019-01-04T10:58:48.291Z,82787.45
2019-01-04T11:03:52.362Z,82770.80
2019-01-04T11:08:56.704Z,82750.09
2019-01-04T11:14:01.116Z,82755.41
2019-01-04T11:19:05.478Z,82762.00
2019-01-04T11:24:15.514Z,82755.71
2019-01-04T11:29:39.112Z,82760.70
2019-01-04T11:35:12.346Z,82755.41
2019-01-04T11:40:45.301Z,82757.27
2019-01-04T11:46:00.462Z,82759.60
2019-01-04T11:51:13.686Z,82773.25
2019-01-04T11:56:18.027Z,82794.98
2019-01-04T12:01:22.389Z,82793.13
2019-01-04T12:06:27.238Z,82800.25
2019-01-04T12:11:31.402Z,82801.98
2019-01-04T12:16:35.728Z,82808.31
2019-01-04T12:21:40.120Z,82814.77
2019-01-04T12:26:44.171Z,82822.48
2019-01-04T12:31:49.299Z,82825.11
2019-01-04T12:36:53.400Z,82821.64
2019-01-04T12:41:57.447Z,82815.86
2019-01-04T12:47:01.487Z,82821.14
2019-01-04T12:52:05.543Z,82817.99
2019-01-04T12:57:09.581Z,82817.23
2019-01-04T13:02:13.633Z,82808.61
2019-01-04T13:07:17.656Z,82804.96
2019-01-04T13:12:22.300Z,82804.41
2019-01-04T13:17:28.810Z,82806.45
2019-01-04T13:22:33.431Z,82802.03
2019-01-04T13:27:37.804Z,82794.02
2019-01-04T13:32:42.171Z,82788.34
2019-01-04T13:37:46.524Z,82784.86
2019-01-04T13:42:50.902Z,82788.94
2019-01-04T13:47:54.989Z,82797.75
2019-01-04T13:52:59.028Z,82796.91
2019-01-04T13:58:03.059Z,82793.86
2019-01-04T14:03:07.359Z,82792.63
2019-01-04T14:08:12.048Z,82793.16
2019-01-04T14:13:16.414Z,82786.09
2019-01-04T14:18:20.781Z,82782.06
2019-01-04T14:23:28.815Z,82780.30
2019-01-04T14:28:31.759Z,82774.09
2019-01-04T14:33:36.142Z,82767.34
2019-01-04T14:38:40.317Z,82766.68
2019-01-04T14:43:44.364Z,82767.75
2019-01-04T14:48:48.398Z,82769.57
2019-01-04T14:53:53.015Z,82766.65
2019-01-04T14:58:57.418Z,82754.68
2019-01-04T15:04:01.784Z,82745.38
2019-01-04T15:09:07.034Z,82743.98
2019-01-04T15:14:11.370Z,82739.61
2019-01-04T15:19:15.744Z,82742.30
2019-01-04T15:24:20.118Z,82727.73
2019-01-04T15:29:24.192Z,82723.72
2019-01-04T15:34:28.516Z,82717.15
2019-01-04T15:39:32.596Z,82717.38
2019-01-04T15:44:36.621Z,82727.01
2019-01-04T15:49:40.952Z,82725.74
2019-01-04T15:54:45.340Z,82724.72
2019-01-04T15:59:50.663Z,82725.81
2019-01-04T16:04:54.772Z,82726.47
2019-01-04T16:09:58.857Z,82725.81
2019-01-04T16:15:02.971Z,82721.47
2019-01-04T16:20:10.867Z,82718.80
2019-01-04T16:25:16.868Z,82718.44
2019-01-04T16:30:20.918Z,82715.45
2019-01-04T16:35:25.278Z,82709.00
2019-01-04T16:40:29.664Z,82710.06
2019-01-04T16:45:34.359Z,82717.41
2019-01-04T16:50:38.438Z,82708.64
2019-01-04T16:55:42.793Z,82708.38
2019-01-04T17:00:47.189Z,82708.30
2019-01-04T17:05:51.283Z,82696.15
2019-01-04T17:10:55.434Z,82704.72
2019-01-04T17:15:59.480Z,82702.00
2019-01-04T17:21:03.851Z,82698.64
2019-01-04T17:26:07.933Z,82688.31
2019-01-04T17:31:11.984Z,82679.88
2019-01-04T17:36:16.299Z,82673.44
2019-01-04T17:41:20.715Z,82675.33
2019-01-04T17:46:24.836Z,82676.63
2019-01-04T17:51:29.255Z,82673.92
2019-01-04T17:56:33.632Z,82673.53
2019-01-04T18:01:38.083Z,82664.11
2019-01-04T18:06:42.180Z,82673.00
2019-01-04T18:11:47.418Z,82662.55
2019-01-04T18:16:51.523Z,82666.53
2019-01-04T18:21:56.152Z,82668.62
2019-01-04T18:27:00.244Z,82668.09
2019-01-04T18:32:09.068Z,82667.16
2019-01-04T18:37:13.936Z,82665.11
2019-01-04T18:42:18.060Z,82669.09
2019-01-04T18:47:22.523Z,82672.08
2019-01-04T18:52:26.907Z,82671.47
2019-01-04T18:57:31.753Z,82675.33
2019-01-04T19:02:36.354Z,82672.53
2019-01-04T19:07:40.836Z,82670.45
2019-01-04T19:12:50.076Z,82675.83
2019-01-04T19:17:54.454Z,82669.81
2019-01-04T19:22:58.909Z,82667.27
2019-01-04T19:28:11.243Z,82668.75
2019-01-04T19:33:21.371Z,82662.87
2019-01-04T19:38:25.919Z,82658.72
2019-01-04T19:43:30.330Z,82658.22
2019-01-04T19:48:34.723Z,82654.44
2019-01-04T19:53:38.871Z,82654.17
2019-01-04T19:58:43.249Z,82640.86
2019-01-04T20:03:47.770Z,82641.86
2019-01-04T20:09:40.898Z,82638.80
2019-01-04T20:15:18.359Z,82637.14
2019-01-04T20:20:24.375Z,82640.99
2019-01-04T20:25:46.601Z,82638.77
2019-01-04T20:30:55.332Z,82640.86
2019-01-04T20:36:04.347Z,82642.29
2019-01-04T20:41:13.435Z,82648.16
2019-01-04T20:46:22.102Z,82649.39
2019-01-04T20:51:30.889Z,82650.52
2019-01-04T20:56:54.970Z,82655.23
2019-01-04T21:02:17.974Z,82651.13
2019-01-04T21:07:24.004Z,82655.53
2019-01-04T21:12:38.478Z,82658.91
2019-01-04T21:17:49.871Z,82657.69
2019-01-04T21:23:24.311Z,82660.61
2019-01-04T21:28:32.953Z,82656.76
2019-01-04T21:33:38.942Z,82662.07
2019-01-04T21:38:59.617Z,82663.75
2019-01-04T21:44:21.696Z,82660.70
2019-01-04T21:49:37.055Z,82662.09
2019-01-04T21:54:42.756Z,82660.46
2019-01-04T21:59:54.390Z,82651.91
2019-01-04T22:05:16.904Z,82663.64
2019-01-04T22:10:38.738Z,82658.95
2019-01-04T22:15:50.328Z,82658.12
2019-01-04T22:21:12.499Z,82653.24
2019-01-04T22:26:34.636Z,82659.45
2019-01-04T22:31:55.537Z,82658.28
2019-01-04T22:37:07.234Z,82660.42
2019-01-04T22:42:29.974Z,82663.02
2019-01-04T22:47:38.469Z,82662.78
2019-01-04T22:53:00.172Z,82663.31
2019-01-04T22:58:17.905Z,82664.97
2019-01-04T23:03:23.867Z,82674.59
2019-01-04T23:08:30.142Z,82669.81
2019-01-04T23:13:41.397Z,82678.78
2019-01-04T23:19:05.422Z,82686.02
2019-01-04T23:24:17.303Z,82683.86
2019-01-04T23:29:25.858Z,82687.89
2019-01-04T23:34:47.944Z,82692.96
2019-01-04T23:40:02.176Z,82695.45
2019-01-04T23:45:08.639Z,82694.98
2019-01-04T23:50:33.131Z,82702.92
2019-01-04T23:55:54.434Z,82701.96
